sensor_id;sensor_type;location;lat;lon;timestamp;pressure;altitude;pressure_sealevel;temperature;humidity
63321;BME280;49449;48.800;9.534;2024-01-30T00:02:15;99934.66;;;2.73;40.30
63321;BME280;49449;48.800;9.534;2024-01-30T00:04:43;99931.25;;;2.62;40.37
63321;BME280;49449;48.800;9.534;2024-01-30T00:07:12;99926.28;;;2.59;40.80
63321;BME280;49449;48.800;9.534;2024-01-30T00:09:40;99931.09;;;2.64;40.49
63321;BME280;49449;48.800;9.534;2024-01-30T00:12:07;99924.38;;;2.61;40.48
63321;BME280;49449;48.800;9.534;2024-01-30T00:14:35;99924.22;;;2.63;40.45
63321;BME280;49449;48.800;9.534;2024-01-30T00:17:03;99934.53;;;2.64;40.36
63321;BME280;49449;48.800;9.534;2024-01-30T00:19:31;99936.41;;;2.72;40.43
63321;BME280;49449;48.800;9.534;2024-01-30T00:21:59;99936.69;;;2.79;40.45
63321;BME280;49449;48.800;9.534;2024-01-30T00:24:28;99933.78;;;2.82;40.50
63321;BME280;49449;48.800;9.534;2024-01-30T00:26:56;99937.75;;;2.86;40.27
63321;BME280;49449;48.800;9.534;2024-01-30T00:29:23;99943.66;;;2.88;40.18
63321;BME280;49449;48.800;9.534;2024-01-30T00:31:56;99931.44;;;2.89;39.93
63321;BME280;49449;48.800;9.534;2024-01-30T00:34:23;99929.78;;;2.87;40.01
63321;BME280;49449;48.800;9.534;2024-01-30T00:36:51;99938.19;;;2.81;40.34
63321;BME280;49449;48.800;9.534;2024-01-30T00:39:19;99936.78;;;2.87;40.02
63321;BME280;49449;48.800;9.534;2024-01-30T00:41:48;99941.63;;;2.82;40.04
63321;BME280;49449;48.800;9.534;2024-01-30T00:44:16;99933.13;;;2.80;40.09
63321;BME280;49449;48.800;9.534;2024-01-30T00:46:44;99934.47;;;2.84;39.67
63321;BME280;49449;48.800;9.534;2024-01-30T00:49:12;99948.50;;;2.83;39.92
63321;BME280;49449;48.800;9.534;2024-01-30T00:51:40;99943.84;;;2.67;40.11
63321;BME280;49449;48.800;9.534;2024-01-30T00:54:08;99942.88;;;2.68;39.97
63321;BME280;49449;48.800;9.534;2024-01-30T00:56:36;99941.63;;;2.72;40.61
63321;BME280;49449;48.800;9.534;2024-01-30T00:59:05;99939.97;;;2.81;39.98
63321;BME280;49449;48.800;9.534;2024-01-30T01:01:33;99939.69;;;2.84;40.15
63321;BME280;49449;48.800;9.534;2024-01-30T01:04:00;99941.34;;;2.85;40.00
63321;BME280;49449;48.800;9.534;2024-01-30T01:06:29;99941.03;;;2.88;39.83
63321;BME280;49449;48.800;9.534;2024-01-30T01:08:56;99947.25;;;2.87;39.95
63321;BME280;49449;48.800;9.534;2024-01-30T01:11:25;99938.28;;;2.90;40.06
63321;BME280;49449;48.800;9.534;2024-01-30T01:13:52;99936.78;;;2.87;40.16
63321;BME280;49449;48.800;9.534;2024-01-30T01:16:21;99934.47;;;2.84;40.04
63321;BME280;49449;48.800;9.534;2024-01-30T01:18:49;99939.56;;;2.76;40.15
63321;BME280;49449;48.800;9.534;2024-01-30T01:21:17;99943.16;;;2.75;39.90
63321;BME280;49449;48.800;9.534;2024-01-30T01:23:45;99938.59;;;2.77;39.94
63321;BME280;49449;48.800;9.534;2024-01-30T01:26:13;99944.50;;;2.79;40.22
63321;BME280;49449;48.800;9.534;2024-01-30T01:28:41;99945.88;;;2.83;40.06
63321;BME280;49449;48.800;9.534;2024-01-30T01:31:09;99942.28;;;2.84;40.04
63321;BME280;49449;48.800;9.534;2024-01-30T01:33:38;99942.16;;;2.85;40.17
63321;BME280;49449;48.800;9.534;2024-01-30T01:36:06;99941.34;;;2.85;40.43
63321;BME280;49449;48.800;9.534;2024-01-30T01:38:34;99937.34;;;2.81;40.29
63321;BME280;49449;48.800;9.534;2024-01-30T01:41:01;99940.66;;;2.83;40.09
63321;BME280;49449;48.800;9.534;2024-01-30T01:43:29;99943.28;;;2.83;40.66
63321;BME280;49449;48.800;9.534;2024-01-30T01:45:57;99936.13;;;2.85;40.80
63321;BME280;49449;48.800;9.534;2024-01-30T01:48:26;99937.75;;;2.86;40.54
63321;BME280;49449;48.800;9.534;2024-01-30T01:50:55;99945.16;;;2.91;40.63
63321;BME280;49449;48.800;9.534;2024-01-30T01:53:24;99947.91;;;2.89;40.74
63321;BME280;49449;48.800;9.534;2024-01-30T01:55:52;99939.81;;;2.92;40.57
63321;BME280;49449;48.800;9.534;2024-01-30T01:58:21;99941.75;;;2.90;40.78
63321;BME280;49449;48.800;9.534;2024-01-30T02:00:50;99940.75;;;2.91;40.58
63321;BME280;49449;48.800;9.534;2024-01-30T02:03:19;99933.59;;;2.93;40.49
63321;BME280;49449;48.800;9.534;2024-01-30T02:05:49;99944.19;;;2.92;40.04
63321;BME280;49449;48.800;9.534;2024-01-30T02:08:19;99942.69;;;2.89;40.35
63321;BME280;49449;48.800;9.534;2024-01-30T02:10:47;99942.69;;;2.89;40.33
63321;BME280;49449;48.800;9.534;2024-01-30T02:13:15;99942.97;;;2.86;40.19
63321;BME280;49449;48.800;9.534;2024-01-30T02:15:43;99942.69;;;2.89;40.02
63321;BME280;49449;48.800;9.534;2024-01-30T02:18:11;99946.25;;;2.88;40.35
63321;BME280;49449;48.800;9.534;2024-01-30T02:20:38;99943.66;;;2.88;40.21
63321;BME280;49449;48.800;9.534;2024-01-30T02:23:09;99941.47;;;2.83;39.76
63321;BME280;49449;48.800;9.534;2024-01-30T02:25:39;99937.78;;;2.76;40.00
63321;BME280;49449;48.800;9.534;2024-01-30T02:28:10;99935.06;;;2.78;40.14
63321;BME280;49449;48.800;9.534;2024-01-30T02:30:39;99939.44;;;2.77;40.27
63321;BME280;49449;48.800;9.534;2024-01-30T02:33:07;99941.34;;;2.75;40.64
63321;BME280;49449;48.800;9.534;2024-01-30T02:35:34;99934.13;;;2.69;39.98
63321;BME280;49449;48.800;9.534;2024-01-30T02:38:02;99934.38;;;2.66;40.39
63321;BME280;49449;48.800;9.534;2024-01-30T02:40:32;99945.38;;;2.70;40.70
63321;BME280;49449;48.800;9.534;2024-01-30T02:43:01;99941.22;;;2.77;40.66
63321;BME280;49449;48.800;9.534;2024-01-30T02:45:29;99940.28;;;2.78;40.62
63321;BME280;49449;48.800;9.534;2024-01-30T02:47:57;99932.72;;;2.75;40.66
63321;BME280;49449;48.800;9.534;2024-01-30T02:50:25;99940.16;;;2.70;40.22
63321;BME280;49449;48.800;9.534;2024-01-30T02:52:53;99938.22;;;2.72;40.36
63321;BME280;49449;48.800;9.534;2024-01-30T02:55:21;99935.06;;;2.68;40.64
63321;BME280;49449;48.800;9.534;2024-01-30T02:57:50;99947.44;;;2.66;39.95
63321;BME280;49449;48.800;9.534;2024-01-30T03:00:19;99940.03;;;2.61;39.98
63321;BME280;49449;48.800;9.534;2024-01-30T03:02:47;99937.59;;;2.50;40.42
63321;BME280;49449;48.800;9.534;2024-01-30T03:05:15;99941.44;;;2.46;40.49
63321;BME280;49449;48.800;9.534;2024-01-30T03:07:42;99935.69;;;2.42;40.09
63321;BME280;49449;48.800;9.534;2024-01-30T03:10:10;99927.69;;;2.44;40.82
63321;BME280;49449;48.800;9.534;2024-01-30T03:12:40;99934.72;;;2.43;40.26
63321;BME280;49449;48.800;9.534;2024-01-30T03:15:10;99939.66;;;2.46;40.46
63321;BME280;49449;48.800;9.534;2024-01-30T03:17:37;99934.44;;;2.46;40.95
63321;BME280;49449;48.800;9.534;2024-01-30T03:20:06;99933.31;;;2.49;40.56
63321;BME280;49449;48.800;9.534;2024-01-30T03:22:34;99924.41;;;2.52;40.40
63321;BME280;49449;48.800;9.534;2024-01-30T03:25:02;99930.28;;;2.54;40.19
63321;BME280;49449;48.800;9.534;2024-01-30T03:27:30;99929.91;;;2.48;40.00
63321;BME280;49449;48.800;9.534;2024-01-30T03:29:58;99932.09;;;2.43;40.21
63321;BME280;49449;48.800;9.534;2024-01-30T03:32:27;99933.44;;;2.47;40.34
63321;BME280;49449;48.800;9.534;2024-01-30T03:34:55;99936.59;;;2.51;40.43
63321;BME280;49449;48.800;9.534;2024-01-30T03:37:23;99932.09;;;2.43;40.54
63321;BME280;49449;48.800;9.534;2024-01-30T03:39:50;99935.41;;;2.36;40.22
63321;BME280;49449;48.800;9.534;2024-01-30T03:42:18;99941.59;;;2.35;41.05
63321;BME280;49449;48.800;9.534;2024-01-30T03:44:46;99931.69;;;2.38;40.46
63321;BME280;49449;48.800;9.534;2024-01-30T03:47:14;99945.97;;;2.24;40.64
63321;BME280;49449;48.800;9.534;2024-01-30T03:49:43;99947.22;;;2.20;40.66
63321;BME280;49449;48.800;9.534;2024-01-30T03:52:11;99947.50;;;2.17;40.48
63321;BME280;49449;48.800;9.534;2024-01-30T03:54:38;99937.75;;;2.19;40.63
63321;BME280;49449;48.800;9.534;2024-01-30T03:57:06;99941.31;;;2.28;40.38
63321;BME280;49449;48.800;9.534;2024-01-30T03:59:34;99945.84;;;2.26;40.30
63321;BME280;49449;48.800;9.534;2024-01-30T04:02:02;99946.97;;;2.23;40.63
63321;BME280;49449;48.800;9.534;2024-01-30T04:04:30;99939.53;;;2.19;44.70
63321;BME280;49449;48.800;9.534;2024-01-30T04:07:00;99939.94;;;2.24;42.49
63321;BME280;49449;48.800;9.534;2024-01-30T04:09:28;99942.44;;;2.25;41.32
63321;BME280;49449;48.800;9.534;2024-01-30T04:11:55;99945.03;;;2.25;40.93
63321;BME280;49449;48.800;9.534;2024-01-30T04:14:23;99950.38;;;2.24;40.80
63321;BME280;49449;48.800;9.534;2024-01-30T04:16:51;99949.44;;;2.15;40.60
63321;BME280;49449;48.800;9.534;2024-01-30T04:19:19;99946.13;;;2.13;40.69
63321;BME280;49449;48.800;9.534;2024-01-30T04:21:46;99947.81;;;2.14;40.49
63321;BME280;49449;48.800;9.534;2024-01-30T04:24:16;99951.22;;;2.15;41.13
63321;BME280;49449;48.800;9.534;2024-01-30T04:26:45;99952.72;;;2.17;40.39
63321;BME280;49449;48.800;9.534;2024-01-30T04:29:12;99951.34;;;2.13;40.53
63321;BME280;49449;48.800;9.534;2024-01-30T04:31:40;99947.94;;;2.13;40.03
63321;BME280;49449;48.800;9.534;2024-01-30T04:34:08;99949.56;;;2.14;40.51
63321;BME280;49449;48.800;9.534;2024-01-30T04:36:36;99948.63;;;2.15;40.53
63321;BME280;49449;48.800;9.534;2024-01-30T04:39:04;99938.88;;;2.17;40.92
63321;BME280;49449;48.800;9.534;2024-01-30T04:41:33;99949.84;;;2.10;40.23
63321;BME280;49449;48.800;9.534;2024-01-30T04:44:00;99949.16;;;2.08;40.76
63321;BME280;49449;48.800;9.534;2024-01-30T04:46:28;99949.28;;;2.07;40.97
63321;BME280;49449;48.800;9.534;2024-01-30T04:48:56;99945.72;;;2.08;40.76
63321;BME280;49449;48.800;9.534;2024-01-30T04:51:24;99946.53;;;2.08;41.11
63321;BME280;49449;48.800;9.534;2024-01-30T04:53:52;99938.59;;;2.10;40.71
63321;BME280;49449;48.800;9.534;2024-01-30T04:56:20;99946.13;;;2.13;40.76
63321;BME280;49449;48.800;9.534;2024-01-30T04:58:49;99946.00;;;2.05;40.50
63321;BME280;49449;48.800;9.534;2024-01-30T05:01:16;99943.53;;;2.03;40.72
63321;BME280;49449;48.800;9.534;2024-01-30T05:03:44;99944.63;;;2.01;40.59
63321;BME280;49449;48.800;9.534;2024-01-30T05:06:12;99948.06;;;2.01;40.53
63321;BME280;49449;48.800;9.534;2024-01-30T05:08:40;99950.25;;;1.96;40.80
63321;BME280;49449;48.800;9.534;2024-01-30T05:11:08;99942.44;;;1.96;40.77
63321;BME280;49449;48.800;9.534;2024-01-30T05:13:37;99947.50;;;1.98;41.28
63321;BME280;49449;48.800;9.534;2024-01-30T05:16:06;99948.91;;;2.02;40.39
63321;BME280;49449;48.800;9.534;2024-01-30T05:18:34;99952.44;;;2.01;40.68
63321;BME280;49449;48.800;9.534;2024-01-30T05:21:02;99945.16;;;1.95;40.60
63321;BME280;49449;48.800;9.534;2024-01-30T05:23:33;99951.34;;;1.94;40.31
63321;BME280;49449;48.800;9.534;2024-01-30T05:26:00;99946.00;;;1.95;40.85
63321;BME280;49449;48.800;9.534;2024-01-30T05:28:29;99947.94;;;1.93;40.91
63321;BME280;49449;48.800;9.534;2024-01-30T05:30:57;99947.94;;;1.93;40.69
63321;BME280;49449;48.800;9.534;2024-01-30T05:33:26;99949.69;;;1.92;40.08
63321;BME280;49449;48.800;9.534;2024-01-30T05:35:54;99956.28;;;1.87;40.96
63321;BME280;49449;48.800;9.534;2024-01-30T05:38:21;99953.69;;;1.87;41.20
63321;BME280;49449;48.800;9.534;2024-01-30T05:40:49;99956.69;;;1.92;40.19
63321;BME280;49449;48.800;9.534;2024-01-30T05:43:17;99961.09;;;1.91;40.41
63321;BME280;49449;48.800;9.534;2024-01-30T05:45:45;99963.03;;;1.89;40.65
63321;BME280;49449;48.800;9.534;2024-01-30T05:48:13;99959.69;;;1.87;40.80
63321;BME280;49449;48.800;9.534;2024-01-30T05:50:42;99962.31;;;1.87;40.89
63321;BME280;49449;48.800;9.534;2024-01-30T05:53:09;99956.97;;;1.89;40.90
63321;BME280;49449;48.800;9.534;2024-01-30T05:55:37;99968.06;;;1.91;40.53
63321;BME280;49449;48.800;9.534;2024-01-30T05:58:05;99968.06;;;1.91;40.78
63321;BME280;49449;48.800;9.534;2024-01-30T06:00:33;99966.00;;;1.95;41.19
63321;BME280;49449;48.800;9.534;2024-01-30T06:03:00;99967.94;;;1.92;40.42
63321;BME280;49449;48.800;9.534;2024-01-30T06:05:28;99973.16;;;1.92;40.71
63321;BME280;49449;48.800;9.534;2024-01-30T06:07:57;99969.19;;;1.88;40.88
63321;BME280;49449;48.800;9.534;2024-01-30T06:10:25;99966.41;;;1.70;39.81
63321;BME280;49449;48.800;9.534;2024-01-30T06:12:53;99974.38;;;1.69;40.37
63321;BME280;49449;48.800;9.534;2024-01-30T06:15:21;99967.09;;;1.72;40.42
63321;BME280;49449;48.800;9.534;2024-01-30T06:17:49;99965.31;;;1.73;40.61
63321;BME280;49449;48.800;9.534;2024-01-30T06:20:16;99959.97;;;1.75;41.07
63321;BME280;49449;48.800;9.534;2024-01-30T06:22:44;99962.44;;;1.76;41.58
63321;BME280;49449;48.800;9.534;2024-01-30T06:25:14;99964.78;;;1.79;40.79
63321;BME280;49449;48.800;9.534;2024-01-30T06:27:43;99962.72;;;1.73;40.41
63321;BME280;49449;48.800;9.534;2024-01-30T06:30:11;99962.56;;;1.65;40.52
63321;BME280;49449;48.800;9.534;2024-01-30T06:32:39;99965.31;;;1.63;40.67
63321;BME280;49449;48.800;9.534;2024-01-30T06:35:12;99969.97;;;1.69;41.01
63321;BME280;49449;48.800;9.534;2024-01-30T06:37:40;99965.06;;;1.76;41.03
63321;BME280;49449;48.800;9.534;2024-01-30T06:40:08;99970.66;;;1.71;40.87
63321;BME280;49449;48.800;9.534;2024-01-30T06:42:38;99979.88;;;1.76;40.73
63321;BME280;49449;48.800;9.534;2024-01-30T06:45:06;99978.91;;;1.67;40.40
63321;BME280;49449;48.800;9.534;2024-01-30T06:47:35;99977.38;;;1.64;41.44
63321;BME280;49449;48.800;9.534;2024-01-30T06:50:03;99975.09;;;1.81;40.49
63321;BME280;49449;48.800;9.534;2024-01-30T06:52:31;99976.75;;;1.91;40.79
63321;BME280;49449;48.800;9.534;2024-01-30T06:54:58;99983.19;;;1.97;40.10
63321;BME280;49449;48.800;9.534;2024-01-30T06:57:26;99984.44;;;1.93;39.88
63321;BME280;49449;48.800;9.534;2024-01-30T06:59:58;99982.38;;;1.97;40.38
63321;BME280;49449;48.800;9.534;2024-01-30T07:02:25;99986.47;;;1.99;40.29
63321;BME280;49449;48.800;9.534;2024-01-30T07:04:53;99982.63;;;2.03;39.89
63321;BME280;49449;48.800;9.534;2024-01-30T07:07:21;99981.41;;;2.07;40.34
63321;BME280;49449;48.800;9.534;2024-01-30T07:09:49;99981.28;;;2.09;39.95
63321;BME280;49449;48.800;9.534;2024-01-30T07:12:22;99991.53;;;2.10;40.17
63321;BME280;49449;48.800;9.534;2024-01-30T07:14:51;99985.53;;;2.10;40.19
63321;BME280;49449;48.800;9.534;2024-01-30T07:17:21;99987.84;;;2.13;39.78
63321;BME280;49449;48.800;9.534;2024-01-30T07:19:49;99996.22;;;2.17;40.58
63321;BME280;49449;48.800;9.534;2024-01-30T07:22:17;99988.53;;;2.15;40.49
63321;BME280;49449;48.800;9.534;2024-01-30T07:24:45;99991.69;;;2.19;40.23
63321;BME280;49449;48.800;9.534;2024-01-30T07:27:14;100000.50;;;2.18;39.82
63321;BME280;49449;48.800;9.534;2024-01-30T07:29:44;99999.78;;;2.16;39.98
63321;BME280;49449;48.800;9.534;2024-01-30T07:32:11;99996.38;;;2.15;39.96
63321;BME280;49449;48.800;9.534;2024-01-30T07:34:41;99996.09;;;2.08;39.91
63321;BME280;49449;48.800;9.534;2024-01-30T07:37:10;99993.06;;;1.94;40.68
63321;BME280;49449;48.800;9.534;2024-01-30T07:39:41;100001.16;;;2.00;40.91
63321;BME280;49449;48.800;9.534;2024-01-30T07:42:10;99993.88;;;2.14;40.85
63321;BME280;49449;48.800;9.534;2024-01-30T07:44:37;100003.50;;;2.23;40.19
63321;BME280;49449;48.800;9.534;2024-01-30T07:47:05;100003.78;;;2.29;40.87
63321;BME280;49449;48.800;9.534;2024-01-30T07:49:34;100001.31;;;2.38;40.73
63321;BME280;49449;48.800;9.534;2024-01-30T07:52:04;100003.06;;;2.47;40.41
63321;BME280;49449;48.800;9.534;2024-01-30T07:54:33;100004.97;;;2.55;40.49
63321;BME280;49449;48.800;9.534;2024-01-30T07:57:00;100002.94;;;2.58;40.06
63321;BME280;49449;48.800;9.534;2024-01-30T07:59:28;99997.44;;;2.61;39.89
63321;BME280;49449;48.800;9.534;2024-01-30T08:01:55;100005.41;;;2.70;39.98
63321;BME280;49449;48.800;9.534;2024-01-30T08:04:23;100003.88;;;2.77;39.82
63321;BME280;49449;48.800;9.534;2024-01-30T08:06:51;100008.69;;;2.81;39.90
63321;BME280;49449;48.800;9.534;2024-01-30T08:09:20;100011.53;;;2.88;39.63
63321;BME280;49449;48.800;9.534;2024-01-30T08:11:52;100005.63;;;2.96;39.54
63321;BME280;49449;48.800;9.534;2024-01-30T08:14:20;100005.69;;;3.04;39.71
63321;BME280;49449;48.800;9.534;2024-01-30T08:16:48;100005.28;;;3.09;39.53
63321;BME280;49449;48.800;9.534;2024-01-30T08:19:16;100002.13;;;3.15;39.46
63321;BME280;49449;48.800;9.534;2024-01-30T08:21:44;99989.81;;;3.25;39.13
63321;BME280;49449;48.800;9.534;2024-01-30T08:24:12;99993.94;;;3.37;39.22
63321;BME280;49449;48.800;9.534;2024-01-30T08:26:41;99992.47;;;3.53;38.85
63321;BME280;49449;48.800;9.534;2024-01-30T08:29:09;99993.41;;;3.79;38.80
63321;BME280;49449;48.800;9.534;2024-01-30T08:31:36;99992.25;;;4.28;37.83
63321;BME280;49449;48.800;9.534;2024-01-30T08:34:04;99993.09;;;4.99;36.67
63321;BME280;49449;48.800;9.534;2024-01-30T08:36:32;99984.66;;;5.56;35.59
63321;BME280;49449;48.800;9.534;2024-01-30T08:39:00;99993.28;;;5.90;34.81
63321;BME280;49449;48.800;9.534;2024-01-30T08:41:28;99982.84;;;6.40;34.22
63321;BME280;49449;48.800;9.534;2024-01-30T08:43:57;99985.41;;;6.81;33.61
63321;BME280;49449;48.800;9.534;2024-01-30T08:46:25;99984.69;;;7.12;32.98
63321;BME280;49449;48.800;9.534;2024-01-30T08:48:53;99979.47;;;7.43;32.37
63321;BME280;49449;48.800;9.534;2024-01-30T08:51:20;99989.22;;;7.74;31.87
63321;BME280;49449;48.800;9.534;2024-01-30T08:53:48;99987.53;;;7.81;31.60
63321;BME280;49449;48.800;9.534;2024-01-30T08:56:16;99989.53;;;7.71;32.00
63321;BME280;49449;48.800;9.534;2024-01-30T08:58:44;99997.28;;;8.19;32.13
63321;BME280;49449;48.800;9.534;2024-01-30T09:01:14;99993.25;;;8.69;30.93
63321;BME280;49449;48.800;9.534;2024-01-30T09:03:42;99987.09;;;9.21;29.87
63321;BME280;49449;48.800;9.534;2024-01-30T09:06:12;99984.34;;;9.59;29.46
63321;BME280;49449;48.800;9.534;2024-01-30T09:08:40;99984.09;;;9.76;28.80
63321;BME280;49449;48.800;9.534;2024-01-30T09:11:09;99981.19;;;10.29;28.23
63321;BME280;49449;48.800;9.534;2024-01-30T09:13:37;99991.59;;;10.87;27.58
63321;BME280;49449;48.800;9.534;2024-01-30T09:16:06;99991.59;;;11.22;27.55
63321;BME280;49449;48.800;9.534;2024-01-30T09:18:35;99997.00;;;11.48;26.93
63321;BME280;49449;48.800;9.534;2024-01-30T09:21:03;99997.16;;;11.95;26.60
63321;BME280;49449;48.800;9.534;2024-01-30T09:23:31;99991.31;;;12.13;26.21
63321;BME280;49449;48.800;9.534;2024-01-30T09:25:59;99994.97;;;12.25;26.03
63321;BME280;49449;48.800;9.534;2024-01-30T09:28:27;100000.25;;;12.39;26.06
63321;BME280;49449;48.800;9.534;2024-01-30T09:30:55;99996.59;;;12.33;26.17
63321;BME280;49449;48.800;9.534;2024-01-30T09:33:23;99997.38;;;12.07;26.92
63321;BME280;49449;48.800;9.534;2024-01-30T09:35:52;99997.50;;;11.79;27.38
63321;BME280;49449;48.800;9.534;2024-01-30T09:38:20;99992.94;;;11.52;27.33
63321;BME280;49449;48.800;9.534;2024-01-30T09:40:53;99998.94;;;11.26;27.79
63321;BME280;49449;48.800;9.534;2024-01-30T09:43:23;99995.75;;;11.37;27.27
63321;BME280;49449;48.800;9.534;2024-01-30T09:45:53;99990.91;;;11.48;26.97
63321;BME280;49449;48.800;9.534;2024-01-30T09:48:22;99990.25;;;12.07;26.28
63321;BME280;49449;48.800;9.534;2024-01-30T09:50:52;99993.34;;;12.38;26.09
63321;BME280;49449;48.800;9.534;2024-01-30T09:53:22;99990.38;;;11.72;27.16
63321;BME280;49449;48.800;9.534;2024-01-30T09:55:50;99999.13;;;11.18;27.79
63321;BME280;49449;48.800;9.534;2024-01-30T09:58:18;99993.13;;;10.74;28.61
63321;BME280;49449;48.800;9.534;2024-01-30T10:00:46;99993.31;;;10.44;29.13
63321;BME280;49449;48.800;9.534;2024-01-30T10:03:14;99993.16;;;10.24;29.50
63321;BME280;49449;48.800;9.534;2024-01-30T10:05:50;99990.88;;;10.00;30.08
63321;BME280;49449;48.800;9.534;2024-01-30T10:08:20;99987.00;;;9.81;34.43
63321;BME280;49449;48.800;9.534;2024-01-30T10:10:49;99987.28;;;9.71;36.39
63321;BME280;49449;48.800;9.534;2024-01-30T10:13:17;99985.50;;;9.72;35.40
63321;BME280;49449;48.800;9.534;2024-01-30T10:15:45;99990.13;;;9.70;34.90
63321;BME280;49449;48.800;9.534;2024-01-30T10:18:13;99990.69;;;9.65;33.59
63321;BME280;49449;48.800;9.534;2024-01-30T10:20:42;99986.41;;;9.64;34.31
63321;BME280;49449;48.800;9.534;2024-01-30T10:23:09;99987.28;;;9.71;34.48
63321;BME280;49449;48.800;9.534;2024-01-30T10:25:39;99992.22;;;9.74;33.32
63321;BME280;49449;48.800;9.534;2024-01-30T10:28:06;99983.97;;;9.62;33.36
63321;BME280;49449;48.800;9.534;2024-01-30T10:30:34;99985.91;;;9.54;32.92
63321;BME280;49449;48.800;9.534;2024-01-30T10:33:02;99986.00;;;9.45;32.78
63321;BME280;49449;48.800;9.534;2024-01-30T10:35:30;99989.47;;;9.31;33.25
63321;BME280;49449;48.800;9.534;2024-01-30T10:37:59;99986.56;;;9.26;32.71
63321;BME280;49449;48.800;9.534;2024-01-30T10:40:28;99977.50;;;9.14;33.12
63321;BME280;49449;48.800;9.534;2024-01-30T10:43:01;99978.88;;;9.09;32.93
63321;BME280;49449;48.800;9.534;2024-01-30T10:45:30;99981.22;;;9.04;33.04
63321;BME280;49449;48.800;9.534;2024-01-30T10:47:59;99975.28;;;9.02;32.81
63321;BME280;49449;48.800;9.534;2024-01-30T10:50:30;99976.94;;;9.03;33.25
63321;BME280;49449;48.800;9.534;2024-01-30T10:53:01;99973.13;;;9.06;33.34
63321;BME280;49449;48.800;9.534;2024-01-30T10:55:30;99972.94;;;9.07;33.48
63321;BME280;49449;48.800;9.534;2024-01-30T10:58:00;99981.28;;;9.11;33.66
63321;BME280;49449;48.800;9.534;2024-01-30T11:00:28;99969.75;;;9.12;33.31
63321;BME280;49449;48.800;9.534;2024-01-30T11:02:59;99967.47;;;9.09;33.65
63321;BME280;49449;48.800;9.534;2024-01-30T11:05:28;99968.31;;;9.09;33.79
63321;BME280;49449;48.800;9.534;2024-01-30T11:07:57;99956.94;;;9.09;33.74
63321;BME280;49449;48.800;9.534;2024-01-30T11:10:25;99960.59;;;9.08;33.78
63321;BME280;49449;48.800;9.534;2024-01-30T11:12:53;99956.94;;;9.09;34.03
63321;BME280;49449;48.800;9.534;2024-01-30T11:15:24;99956.94;;;9.09;34.13
63321;BME280;49449;48.800;9.534;2024-01-30T11:17:52;99954.47;;;9.07;35.08
63321;BME280;49449;48.800;9.534;2024-01-30T11:20:21;99957.78;;;9.09;35.54
63321;BME280;49449;48.800;9.534;2024-01-30T11:22:50;99948.47;;;9.14;35.96
63321;BME280;49449;48.800;9.534;2024-01-30T11:25:20;99944.66;;;9.16;35.90
63321;BME280;49449;48.800;9.534;2024-01-30T11:27:50;99943.22;;;9.14;36.29
63321;BME280;49449;48.800;9.534;2024-01-30T11:30:23;99943.22;;;9.14;35.65
63321;BME280;49449;48.800;9.534;2024-01-30T11:33:01;99940.22;;;9.17;35.47
63321;BME280;49449;48.800;9.534;2024-01-30T11:35:35;99937.38;;;9.18;35.10
63321;BME280;49449;48.800;9.534;2024-01-30T11:38:03;99934.72;;;9.18;35.09
63321;BME280;49449;48.800;9.534;2024-01-30T11:40:32;99937.19;;;9.20;35.26
63321;BME280;49449;48.800;9.534;2024-01-30T11:43:01;99926.47;;;9.21;35.33
63321;BME280;49449;48.800;9.534;2024-01-30T11:45:33;99936.38;;;9.19;35.00
63321;BME280;49449;48.800;9.534;2024-01-30T11:48:01;99928.28;;;9.21;35.28
63321;BME280;49449;48.800;9.534;2024-01-30T11:50:30;99933.03;;;9.25;35.01
63321;BME280;49449;48.800;9.534;2024-01-30T11:52:59;99928.91;;;9.23;34.94
63321;BME280;49449;48.800;9.534;2024-01-30T11:55:29;99919.84;;;9.25;35.33
63321;BME280;49449;48.800;9.534;2024-01-30T11:57:59;99919.25;;;9.30;35.00
63321;BME280;49449;48.800;9.534;2024-01-30T12:00:26;99924.34;;;9.32;34.88
63321;BME280;49449;48.800;9.534;2024-01-30T12:02:57;99924.81;;;9.35;34.77
63321;BME280;49449;48.800;9.534;2024-01-30T12:05:27;99915.72;;;9.38;34.95
63321;BME280;49449;48.800;9.534;2024-01-30T12:07:56;99918.13;;;9.39;34.99
63321;BME280;49449;48.800;9.534;2024-01-30T12:10:25;99909.06;;;9.42;34.76
63321;BME280;49449;48.800;9.534;2024-01-30T12:12:53;99914.16;;;9.43;34.80
63321;BME280;49449;48.800;9.534;2024-01-30T12:15:22;99905.22;;;9.44;34.82
63321;BME280;49449;48.800;9.534;2024-01-30T12:17:50;99908.78;;;9.37;34.90
63321;BME280;49449;48.800;9.534;2024-01-30T12:20:20;99904.91;;;9.33;34.91
63321;BME280;49449;48.800;9.534;2024-01-30T12:22:49;99898.59;;;9.34;35.24
63321;BME280;49449;48.800;9.534;2024-01-30T12:25:20;99900.50;;;9.40;35.35
63321;BME280;49449;48.800;9.534;2024-01-30T12:27:50;99898.41;;;9.50;35.38
63321;BME280;49449;48.800;9.534;2024-01-30T12:30:19;99892.97;;;9.58;35.38
63321;BME280;49449;48.800;9.534;2024-01-30T12:32:49;99892.44;;;9.63;35.36
63321;BME280;49449;48.800;9.534;2024-01-30T12:35:20;99893.69;;;9.67;35.31
63321;BME280;49449;48.800;9.534;2024-01-30T12:37:49;99895.31;;;9.68;35.41
63321;BME280;49449;48.800;9.534;2024-01-30T12:40:18;99884.59;;;9.70;35.23
63321;BME280;49449;48.800;9.534;2024-01-30T12:42:46;99879.94;;;9.72;34.58
63321;BME280;49449;48.800;9.534;2024-01-30T12:45:16;99885.81;;;9.74;34.62
63321;BME280;49449;48.800;9.534;2024-01-30T12:47:46;99884.63;;;9.76;34.73
63321;BME280;49449;48.800;9.534;2024-01-30T12:50:14;99883.44;;;9.79;34.90
63321;BME280;49449;48.800;9.534;2024-01-30T12:52:48;99871.34;;;9.84;34.50
63321;BME280;49449;48.800;9.534;2024-01-30T12:55:16;99872.38;;;9.90;34.20
63321;BME280;49449;48.800;9.534;2024-01-30T12:57:43;99876.09;;;9.96;34.32
63321;BME280;49449;48.800;9.534;2024-01-30T13:00:12;99876.34;;;10.01;34.36
63321;BME280;49449;48.800;9.534;2024-01-30T13:02:40;99878.41;;;10.05;34.37
63321;BME280;49449;48.800;9.534;2024-01-30T13:05:09;99877.19;;;10.08;34.53
63321;BME280;49449;48.800;9.534;2024-01-30T13:07:37;99872.34;;;10.12;34.63
63321;BME280;49449;48.800;9.534;2024-01-30T13:10:07;99881.09;;;10.12;34.61
63321;BME280;49449;48.800;9.534;2024-01-30T13:12:35;99873.81;;;10.14;34.96
63321;BME280;49449;48.800;9.534;2024-01-30T13:15:05;99880.50;;;10.17;34.33
63321;BME280;49449;48.800;9.534;2024-01-30T13:17:33;99874.56;;;10.08;34.18